.
WxDataArchive / Data Records for 2012-01-19
2012-01-18 January 2012 2012-01-20

Data Records for Thursday, 19 January 2012

Time	Temp	Chill	HIndex	Humid	Dewpt	 Wind 	HiWind	WindDir	Rain 	Barom 
-----	----	-----	------	-----	-----	------	------	-------	-----	----- 
00:00	23.8	23.8	23.8	75	17.1	1	4	68	0.00	30.023 
00:05	23.8	23.8	23.8	75	17.1	1	6	68	0.00	30.023 
00:10	23.8	23.8	23.8	75	17.1	1	3	112	0.00	30.023 
00:15	23.6	23.6	23.6	75	16.9	0	4	292	0.00	30.023 
00:20	23.6	23.6	23.6	75	16.9	1	5	68	0.00	30.023 
00:25	23.8	23.8	23.8	75	17.1	1	3	112	0.00	30.023 
00:30	23.8	23.8	23.8	75	17.1	1	3	112	0.00	30.024 
00:35	23.8	23.8	23.8	75	17.1	1	5	248	0.00	30.024 
00:40	23.6	23.6	23.6	75	16.9	0	2	248	0.00	30.024 
00:45	23.6	23.6	23.6	75	16.9	0	2	248	0.00	30.020 
00:50	23.5	23.5	23.5	75	16.8	1	4	248	0.00	30.020 
00:55	23.5	23.5	23.5	76	17.1	1	4	90	0.00	30.020 
01:00	23.3	23.3	23.3	76	16.9	0	2	90	0.00	30.006 
01:05	23.3	23.3	23.3	76	16.9	0	2	90	0.00	30.006 
01:10	23.2	23.2	23.2	77	17.1	0	2	90	0.00	30.006 
01:15	23.2	23.2	23.2	77	17.1	0	2	225	0.00	29.996 
01:20	23.0	23.0	23.0	77	16.9	0	2	225	0.00	29.996 
01:25	23.0	23.0	23.0	77	16.9	0	2	225	0.00	29.996 
01:30	22.9	22.9	22.9	78	17.1	0	2	225	0.00	29.991 
01:35	22.9	22.9	22.9	78	17.1	0	1	225	0.00	29.991 
01:40	22.9	22.9	22.9	78	17.1	0	2	225	0.00	29.991 
01:45	22.9	22.9	22.9	78	17.1	0	1	225	0.00	29.981 
01:50	22.9	22.9	22.9	78	17.1	0	1	225	0.00	29.981 
01:55	22.9	22.9	22.9	78	17.1	0	1	225	0.00	29.981 
02:00	22.9	22.9	22.9	78	17.1	0	2	225	0.00	29.973 
02:05	22.9	22.9	22.9	79	17.4	0	2	225	0.00	29.973 
02:10	23.0	23.0	23.0	79	17.5	1	3	112	0.00	29.973 
02:15	23.2	23.2	23.2	79	17.7	0	2	270	0.00	29.960 
02:20	23.3	23.3	23.3	78	17.5	1	4	270	0.00	29.960 
02:25	23.6	23.6	23.6	78	17.8	1	3	248	0.00	29.960 
02:30	23.9	23.9	23.9	77	17.8	1	3	248	0.00	29.952 
02:35	24.1	24.1	24.1	77	18.0	1	3	248	0.00	29.952 
02:40	24.4	24.4	24.4	77	18.2	1	6	248	0.00	29.952 
02:45	24.7	24.7	24.7	76	18.2	1	4	270	0.00	29.942 
02:50	24.8	24.8	24.8	75	18.0	1	9	248	0.00	29.942 
02:55	25.0	25.0	25.0	75	18.2	1	3	270	0.00	29.942 
03:00	25.3	25.3	25.3	75	18.5	2	7	248	0.00	29.931 
03:05	25.4	25.4	25.4	74	18.3	1	3	248	0.00	29.931 
03:10	25.4	25.4	25.4	74	18.3	1	5	248	0.00	29.931 
03:15	25.6	25.6	25.6	74	18.5	1	6	248	0.00	29.917 
03:20	25.7	25.7	25.7	74	18.6	1	4	270	0.00	29.917 
03:25	25.7	25.7	25.7	74	18.6	1	5	45	0.00	29.917 
03:30	25.8	25.8	25.8	74	18.7	1	4	248	0.00	29.894 
03:35	26.0	26.0	26.0	73	18.6	1	5	248	0.00	29.894 
03:40	26.0	26.0	26.0	73	18.6	1	5	90	0.00	29.894 
03:45	26.1	26.1	26.1	73	18.7	1	7	90	0.00	29.878 
03:50	26.1	26.1	26.1	73	18.7	2	6	248	0.00	29.878 
03:55	26.3	26.3	26.3	73	18.8	2	5	248	0.00	29.878 
04:00	26.4	26.4	26.4	72	18.6	2	5	248	0.00	29.877 
04:05	26.4	26.4	26.4	72	18.6	1	5	248	0.00	29.877 
04:10	26.6	26.6	26.6	72	18.8	2	5	248	0.00	29.877 
04:15	26.6	26.6	26.6	71	18.5	2	6	248	0.00	29.864 
04:20	26.7	26.7	26.7	71	18.6	2	6	248	0.00	29.864 
04:25	26.9	26.9	26.9	70	18.4	1	7	248	0.00	29.864 
04:30	27.0	27.0	27.0	70	18.5	3	6	248	0.00	29.876 
04:35	27.2	27.2	27.2	69	18.4	3	7	248	0.00	29.876 
04:40	27.2	27.2	27.2	69	18.4	2	6	248	0.00	29.876 
04:45	27.3	27.3	27.3	69	18.5	3	10	248	0.00	29.883 
04:50	27.3	27.3	27.3	69	18.5	3	7	248	0.00	29.883 
04:55	27.3	27.3	27.3	69	18.5	2	11	248	0.00	29.883 
05:00	27.3	27.3	27.3	69	18.5	3	11	248	0.00	29.868 
05:05	27.3	27.3	27.3	69	18.5	3	9	248	0.00	29.868 
05:10	27.3	27.3	27.3	69	18.5	3	10	248	0.00	29.868 
05:15	27.3	27.3	27.3	69	18.5	2	5	248	0.00	29.864 
05:20	27.3	27.3	27.3	69	18.5	2	6	248	0.00	29.864 
05:25	27.3	27.3	27.3	70	18.8	2	6	248	0.00	29.864 
05:30	27.3	27.3	27.3	70	18.8	3	7	248	0.00	29.862 
05:35	27.3	27.3	27.3	70	18.8	3	11	248	0.00	29.862 
05:40	27.3	27.3	27.3	70	18.8	3	12	248	0.00	29.862 
05:45	27.3	22.6	27.3	70	18.8	4	10	248	0.00	29.864 
05:50	27.5	27.5	27.5	70	19.0	2	7	225	0.00	29.864 
05:55	27.5	27.5	27.5	70	19.0	3	9	248	0.00	29.864 
06:00	27.5	27.5	27.5	70	19.0	2	6	248	0.00	29.860 
06:05	27.5	27.5	27.5	70	19.0	3	6	270	0.00	29.860 
06:10	27.6	27.6	27.6	70	19.1	3	9	248	0.00	29.860 
06:15	27.6	27.6	27.6	70	19.1	3	7	248	0.00	29.861 
06:20	27.6	27.6	27.6	70	19.1	3	7	248	0.00	29.861 
06:25	27.6	27.6	27.6	71	19.4	3	8	248	0.00	29.861 
06:30	27.8	27.8	27.8	71	19.6	2	8	248	0.00	29.853 
06:35	27.8	27.8	27.8	71	19.6	2	5	248	0.00	29.853 
06:40	27.9	27.9	27.9	71	19.7	3	9	248	0.00	29.853 
06:45	27.9	27.9	27.9	71	19.7	2	5	248	0.00	29.850 
06:50	27.9	27.9	27.9	72	20.1	2	6	248	0.00	29.850 
06:55	27.9	27.9	27.9	72	20.1	3	11	248	0.00	29.850 
07:00	27.9	27.9	27.9	73	20.4	3	7	248	0.00	29.850 
07:05	27.9	27.9	27.9	75	21.0	3	10	248	0.00	29.850 
07:10	27.8	27.8	27.8	76	21.2	3	11	248	0.00	29.850 
07:15	27.8	27.8	27.8	76	21.2	2	5	248	0.00	29.848 
07:20	27.8	27.8	27.8	75	20.9	2	7	248	0.00	29.848 
07:25	27.8	27.8	27.8	75	20.9	2	4	248	0.00	29.848 
07:30	27.9	27.9	27.9	75	21.0	2	7	248	0.00	29.845 
07:35	27.9	27.9	27.9	75	21.0	3	7	248	0.00	29.845 
07:40	28.1	28.1	28.1	75	21.2	2	4	248	0.00	29.845 
07:45	28.1	28.1	28.1	75	21.2	2	7	248	0.00	29.845 
07:50	28.1	28.1	28.1	75	21.2	3	10	248	0.00	29.845 
07:55	28.1	28.1	28.1	75	21.2	3	7	248	0.00	29.845 
08:00	28.1	28.1	28.1	76	21.5	2	6	248	0.00	29.847 
08:05	28.1	28.1	28.1	77	21.8	2	6	248	0.00	29.847 
08:10	28.1	28.1	28.1	77	21.8	2	5	248	0.00	29.847 
08:15	27.9	27.9	27.9	79	22.2	2	5	248	0.00	29.852 
08:20	27.9	27.9	27.9	80	22.5	2	7	248	0.00	29.852 
08:25	27.8	27.8	27.8	81	22.7	2	7	248	0.00	29.852 
08:30	27.6	27.6	27.6	82	22.8	3	6	248	0.00	29.858 
08:35	27.6	27.6	27.6	83	23.1	1	4	248	0.00	29.858 
08:40	27.6	27.6	27.6	84	23.4	2	6	248	0.00	29.858 
08:45	27.6	27.6	27.6	84	23.4	2	6	248	0.00	29.869 
08:50	27.6	27.6	27.6	85	23.7	2	7	248	0.00	29.869 
08:55	27.6	27.6	27.6	85	23.7	2	6	248	0.00	29.869 
09:00	27.6	27.6	27.6	86	24.0	2	7	248	0.00	29.868 
09:05	27.6	27.6	27.6	86	24.0	3	7	248	0.00	29.868 
09:10	27.6	27.6	27.6	86	24.0	2	6	248	0.00	29.868 
09:15	27.6	27.6	27.6	87	24.2	2	5	248	0.00	29.879 
09:20	27.6	27.6	27.6	88	24.5	1	5	248	0.00	29.879 
09:25	27.6	27.6	27.6	88	24.5	2	9	248	0.00	29.879 
09:30	27.6	27.6	27.6	88	24.5	3	8	248	0.00	29.888 
09:35	27.6	27.6	27.6	89	24.8	2	6	248	0.00	29.888 
09:40	27.6	27.6	27.6	89	24.8	3	6	248	0.00	29.888 
09:45	27.6	27.6	27.6	89	24.8	3	10	248	0.00	29.885 
09:50	27.6	27.6	27.6	90	25.1	3	6	248	0.00	29.885 
09:55	27.6	27.6	27.6	90	25.1	3	7	248	0.00	29.885 
10:00	27.6	27.6	27.6	90	25.1	3	9	248	0.00	29.893 
10:05	27.6	27.6	27.6	90	25.1	2	5	248	0.00	29.893 
10:10	27.8	27.8	27.8	90	25.3	3	9	248	0.00	29.893 
10:15	27.8	27.8	27.8	90	25.3	3	7	248	0.00	29.903 
10:20	27.8	27.8	27.8	90	25.3	2	5	248	0.00	29.903 
10:25	27.9	27.9	27.9	90	25.4	3	6	248	0.00	29.903 
10:30	27.8	27.8	27.8	90	25.3	3	10	248	0.00	29.905 
10:35	27.8	27.8	27.8	90	25.3	3	6	248	0.00	29.905 
10:40	27.8	27.8	27.8	90	25.3	2	5	292	0.00	29.905 
10:45	27.9	27.9	27.9	90	25.4	3	5	248	0.00	29.908 
10:50	27.9	27.9	27.9	89	25.1	3	7	270	0.00	29.908 
10:55	27.9	27.9	27.9	89	25.1	3	9	248	0.00	29.908 
11:00	27.9	27.9	27.9	89	25.1	3	9	270	0.00	29.910 
11:05	27.8	27.8	27.8	89	25.0	3	7	248	0.00	29.910 
11:10	27.8	27.8	27.8	89	25.0	3	6	248	0.00	29.910 
11:15	27.8	27.8	27.8	89	25.0	3	6	248	0.00	29.908 
11:20	27.5	27.5	27.5	88	24.4	3	7	270	0.00	29.908 
11:25	27.5	27.5	27.5	88	24.4	3	5	270	0.00	29.908 
11:30	27.6	27.6	27.6	88	24.5	3	5	270	0.00	29.903 
11:35	27.5	27.5	27.5	88	24.4	3	5	248	0.00	29.903 
11:40	27.6	27.6	27.6	88	24.5	3	6	248	0.00	29.903 
11:45	27.5	27.5	27.5	88	24.4	3	5	248	0.00	29.910 
11:50	27.5	27.5	27.5	89	24.7	2	5	270	0.00	29.910 
11:55	27.5	27.5	27.5	89	24.7	2	5	248	0.00	29.910 
12:00	27.3	27.3	27.3	89	24.5	3	6	248	0.00	29.904 
12:05	26.9	22.2	26.9	88	23.8	4	6	270	0.00	29.904 
12:10	26.7	26.7	26.7	89	23.9	3	5	270	0.00	29.904 
12:15	26.6	26.6	26.6	88	23.5	3	5	270	0.00	29.908 
12:20	26.4	26.4	26.4	89	23.6	3	5	270	0.00	29.908 
12:25	26.3	26.3	26.3	89	23.5	2	4	270	0.00	29.908 
12:30	26.3	26.3	26.3	89	23.5	3	5	270	0.00	29.911 
12:35	26.0	21.1	26.0	89	23.2	4	9	270	0.00	29.911 
12:40	25.4	20.5	25.4	88	22.4	4	9	270	0.00	29.911 
12:45	25.1	20.1	25.1	88	22.1	4	7	270	0.00	29.912 
12:50	25.0	25.0	25.0	88	22.0	3	7	225	0.00	29.912 
12:55	25.0	25.0	25.0	89	22.2	3	5	248	0.00	29.912 
13:00	25.0	25.0	25.0	88	22.0	2	4	270	0.00	29.904 
13:05	24.8	24.8	24.8	88	21.8	3	7	270	0.00	29.904 
13:10	24.1	24.1	24.1	88	21.1	3	6	248	0.00	29.904 
13:15	23.3	23.3	23.3	87	20.0	3	6	315	0.00	29.922 
13:20	22.7	22.7	22.7	87	19.4	3	6	292	0.00	29.922 
13:25	22.1	22.1	22.1	86	18.6	3	6	315	0.00	29.922 
13:30	21.6	16.1	21.6	86	18.1	4	7	270	0.00	29.920 
13:35	21.4	21.4	21.4	86	17.9	2	5	292	0.00	29.920 
13:40	21.1	21.1	21.1	86	17.6	2	5	315	0.00	29.920 
13:45	21.0	21.0	21.0	86	17.5	3	6	315	0.00	29.920 
13:50	20.6	20.6	20.6	86	17.1	3	10	270	0.00	29.920 
13:55	20.6	20.6	20.6	87	17.4	3	6	270	0.00	29.920 
14:00	20.3	20.3	20.3	86	16.8	2	6	248	0.00	29.932 
14:05	19.7	19.7	19.7	86	16.2	2	6	315	0.00	29.932 
14:10	19.5	19.5	19.5	86	16.0	3	5	292	0.00	29.932 
14:15	19.4	19.4	19.4	86	15.9	3	6	270	0.00	29.935 
14:20	19.2	19.2	19.2	85	15.4	3	5	248	0.00	29.935 
14:25	19.2	19.2	19.2	84	15.2	3	6	270	0.00	29.935 
14:30	19.1	19.1	19.1	81	14.2	3	6	270	0.00	29.938 
14:35	19.1	13.2	19.1	79	13.7	4	7	270	0.00	29.938 
14:40	19.2	19.2	19.2	77	13.2	3	7	270	0.00	29.938 
14:45	19.1	19.1	19.1	76	12.8	3	7	270	0.00	29.946 
14:50	18.9	18.9	18.9	73	11.7	3	7	292	0.00	29.946 
14:55	18.9	18.9	18.9	73	11.7	3	7	270	0.00	29.946 
15:00	18.8	12.8	18.8	72	11.3	4	11	270	0.00	29.949 
15:05	18.9	18.9	18.9	72	11.4	3	7	270	0.00	29.949 
15:10	19.1	19.1	19.1	72	11.6	2	6	315	0.00	29.949 
15:15	18.9	18.9	18.9	71	11.1	3	7	270	0.00	29.965 
15:20	18.8	18.8	18.8	71	11.0	3	5	292	0.00	29.965 
15:25	18.6	18.6	18.6	71	10.8	3	7	270	0.00	29.965 
15:30	18.6	18.6	18.6	71	10.8	3	6	270	0.00	29.978 
15:35	18.4	18.4	18.4	70	10.3	3	7	270	0.00	29.978 
15:40	18.3	18.3	18.3	69	9.9	3	6	270	0.00	29.978 
15:45	18.1	18.1	18.1	67	9.0	3	6	270	0.00	29.982 
15:50	18.0	18.0	18.0	67	8.9	3	6	292	0.00	29.982 
15:55	17.8	17.8	17.8	67	8.7	2	7	315	0.00	29.982 
16:00	17.5	17.5	17.5	68	8.8	2	7	315	0.00	29.997 
16:05	17.3	17.3	17.3	68	8.6	2	6	315	0.00	29.997 
16:10	17.5	17.5	17.5	69	9.1	2	4	248	0.00	29.997 
16:15	17.5	17.5	17.5	69	9.1	2	4	248	0.00	30.005 
16:20	17.2	17.2	17.2	68	8.5	2	5	270	0.00	30.005 
16:25	16.9	16.9	16.9	67	7.9	2	5	292	0.00	30.005 
16:30	16.5	16.5	16.5	66	7.2	2	5	270	0.00	30.013 
16:35	16.4	16.4	16.4	67	7.4	2	4	248	0.00	30.013 
16:40	16.2	16.2	16.2	66	6.9	3	6	270	0.00	30.013 
16:45	16.1	16.1	16.1	65	6.4	3	6	270	0.00	30.030 
16:50	15.9	15.9	15.9	65	6.2	3	6	338	0.00	30.030 
16:55	15.7	15.7	15.7	66	6.4	3	6	292	0.00	30.030 
17:00	15.4	15.4	15.4	67	6.4	2	6	270	0.00	30.038 
17:05	15.4	15.4	15.4	67	6.4	3	6	248	0.00	30.038 
17:10	15.2	15.2	15.2	68	6.6	1	3	248	0.00	30.038 
17:15	15.2	15.2	15.2	69	6.9	2	6	292	0.00	30.045 
17:20	15.2	15.2	15.2	69	6.9	2	5	315	0.00	30.045 
17:25	15.2	15.2	15.2	70	7.2	2	5	292	0.00	30.045 
17:30	15.2	15.2	15.2	70	7.2	1	4	292	0.00	30.057 
17:35	15.2	15.2	15.2	69	6.9	1	4	292	0.00	30.057 
17:40	14.9	14.9	14.9	67	6.0	2	7	270	0.00	30.057 
17:45	14.8	14.8	14.8	67	5.9	2	5	292	0.00	30.062 
17:50	14.4	14.4	14.4	68	5.8	1	3	338	0.00	30.062 
17:55	14.3	14.3	14.3	69	6.0	1	3	292	0.00	30.062 
18:00	14.0	14.0	14.0	69	5.7	0	2	315	0.00	30.065 
18:05	13.8	13.8	13.8	70	5.9	0	2	315	0.00	30.065 
18:10	13.5	13.5	13.5	70	5.6	0	2	315	0.00	30.065 
18:15	13.3	13.3	13.3	70	5.4	0	3	270	0.00	30.074 
18:20	13.1	13.1	13.1	70	5.2	0	1	270	0.00	30.074 
18:25	13.1	13.1	13.1	70	5.2	1	3	270	0.00	30.074 
18:30	13.1	13.1	13.1	71	5.5	1	4	270	0.00	30.084 
18:35	13.1	13.1	13.1	71	5.5	1	3	270	0.00	30.084 
18:40	13.1	13.1	13.1	71	5.5	1	3	270	0.00	30.084 
18:45	13.1	13.1	13.1	70	5.2	1	5	315	0.00	30.095 
18:50	13.1	13.1	13.1	70	5.2	1	3	315	0.00	30.095 
18:55	12.9	12.9	12.9	69	4.7	0	3	292	0.00	30.095 
19:00	12.8	12.8	12.8	69	4.6	1	4	270	0.00	30.099 
19:05	12.6	12.6	12.6	69	4.4	2	4	292	0.00	30.099 
19:10	12.4	12.4	12.4	68	3.9	1	4	270	0.00	30.099 
19:15	12.3	12.3	12.3	68	3.8	1	3	270	0.00	30.112 
19:20	12.1	12.1	12.1	68	3.6	0	3	292	0.00	30.112 
19:25	11.9	11.9	11.9	68	3.4	1	2	315	0.00	30.112 
19:30	11.9	11.9	11.9	68	3.4	1	2	315	0.00	30.115 
19:35	11.9	11.9	11.9	68	3.4	1	4	315	0.00	30.115 
19:40	11.9	11.9	11.9	68	3.4	1	3	338	0.00	30.115 
19:45	11.9	11.9	11.9	67	3.1	1	2	338	0.00	30.125 
19:50	11.7	11.7	11.7	67	2.9	0	2	315	0.00	30.125 
19:55	11.7	11.7	11.7	67	2.9	0	2	315	0.00	30.125 
20:00	11.7	11.7	11.7	68	3.2	0	4	315	0.00	30.133 
20:05	11.9	11.9	11.9	68	3.4	1	3	315	0.00	30.133 
20:10	12.1	12.1	12.1	68	3.6	0	2	338	0.00	30.133 
20:15	12.3	12.3	12.3	68	3.8	1	4	270	0.00	30.141 
20:20	12.4	12.4	12.4	68	3.9	0	4	292	0.00	30.141 
20:25	12.6	12.6	12.6	68	4.1	1	2	292	0.00	30.141 
20:30	12.8	12.8	12.8	68	4.3	0	2	338	0.00	30.141 
20:35	12.8	12.8	12.8	69	4.6	0	3	292	0.00	30.141 
20:40	12.8	12.8	12.8	69	4.6	0	2	292	0.00	30.141 
20:45	12.8	12.8	12.8	69	4.6	1	4	292	0.00	30.143 
20:50	12.8	12.8	12.8	68	4.3	1	5	338	0.00	30.143 
20:55	12.8	12.8	12.8	68	4.3	1	4	248	0.00	30.143 
21:00	12.8	12.8	12.8	68	4.3	0	2	248	0.00	30.151 
21:05	12.8	12.8	12.8	67	3.9	1	4	248	0.00	30.151 
21:10	12.8	12.8	12.8	67	3.9	1	4	248	0.00	30.151 
21:15	12.8	12.8	12.8	66	3.6	0	2	248	0.00	30.146 
21:20	12.8	12.8	12.8	66	3.6	1	3	248	0.00	30.146 
21:25	12.8	12.8	12.8	67	3.9	1	3	248	0.00	30.146 
21:30	12.8	12.8	12.8	67	3.9	0	3	248	0.00	30.157 
21:35	12.9	12.9	12.9	68	4.4	1	3	248	0.00	30.157 
21:40	12.9	12.9	12.9	67	4.0	0	3	248	0.00	30.157 
21:45	12.9	12.9	12.9	67	4.0	0	3	248	0.00	30.160 
21:50	12.9	12.9	12.9	67	4.0	1	4	248	0.00	30.160 
21:55	12.9	12.9	12.9	67	4.0	0	2	248	0.00	30.160 
22:00	12.9	12.9	12.9	66	3.7	0	3	248	0.00	30.170 
22:05	12.9	12.9	12.9	67	4.0	0	2	248	0.00	30.170 
22:10	12.9	12.9	12.9	68	4.4	0	2	248	0.00	30.170 
22:15	12.9	12.9	12.9	69	4.7	0	2	248	0.00	30.168 
22:20	12.9	12.9	12.9	68	4.4	0	3	248	0.00	30.168 
22:25	12.9	12.9	12.9	68	4.4	0	1	248	0.00	30.168 
22:30	12.9	12.9	12.9	68	4.4	0	1	248	0.00	30.172 
22:35	12.9	12.9	12.9	68	4.4	0	1	248	0.00	30.172 
22:40	12.9	12.9	12.9	68	4.4	0	3	248	0.00	30.172 
22:45	12.9	12.9	12.9	68	4.4	0	2	248	0.00	30.174 
22:50	12.9	12.9	12.9	67	4.0	0	1	248	0.00	30.174 
22:55	12.9	12.9	12.9	67	4.0	0	2	248	0.00	30.174 
23:00	12.9	12.9	12.9	67	4.0	0	2	248	0.00	30.176 
23:05	12.9	12.9	12.9	67	4.0	0	3	248	0.00	30.176 
23:10	12.8	12.8	12.8	67	3.9	1	4	248	0.00	30.176 
23:15	12.8	12.8	12.8	66	3.6	0	3	248	0.00	30.186 
23:20	12.8	12.8	12.8	66	3.6	0	2	248	0.00	30.186 
23:25	12.8	12.8	12.8	66	3.6	0	1	248	0.00	30.186 
23:30	12.8	12.8	12.8	66	3.6	0	1	248	0.00	30.190 
23:35	12.6	12.6	12.6	66	3.4	0	2	248	0.00	30.190 
23:40	12.6	12.6	12.6	66	3.4	1	3	248	0.00	30.190 
23:45	12.6	12.6	12.6	66	3.4	0	1	248	0.00	30.196 
23:50	12.6	12.6	12.6	65	3.1	0	3	248	0.00	30.196 
23:55	12.6	12.6	12.6	65	3.1	0	2	248	0.00	30.196 

CoCoRaHS
IN-AL-39
A2 Web Hosting
Creative Commons License
GoDaddy
search engine by freefind advanced

loaded 2018-11-15 03:05:26 • last modified 2010-11-18 10:43:29
Privacy PolicyDisclaimer
• wx.awcolley.com is powered by PmWiki v.2002016 •
• all content (unless otherwise noted) © 2018 A W Colley